Saint-Pierre, Reunion
Current Conditions -  °F | °C
As of 4:00 PM on Friday 21 Nov 2014 (Local Time) from FMEP Reporting Station
Clear Clear  
Wind Chill: 84°   Ceiling: Unl
Heat Index: 90°   Visibility: 6mi
Dew Point: 72°   Wind: 12mph
Humidity: 66%   Direction: 260°W
Pressure: 29.91"   Gusts: NA
Location:  21.32°S, 55.47°E
Report Text: FMEP 211200Z AUTO 26010KT 9999 NCD 29/22 Q1013
Loading
Personal Weather Stations






























Interactive Weather Map New forecast layout! Learn more

10-Day Weather Forecast

Advertisements
Track Severe Weather on mobile